Lombardy, Mississippi
Current Conditions -  °F | °C
As of 7:15 PM on Sunday 21 Dec 2014 (Local Time) from KRNV Reporting Station
Clear Clear  
Wind Chill: 42°   Ceiling: Unl
Heat Index: 45°   Visibility: 10mi
Dew Point: 40°   Wind: 5mph
Humidity: 85%   Direction: 100°E
Pressure: 29.96"   Gusts: NA
Location:  33.976°N, 90.7349°W
Report Text: KRNV 220115Z AUTO 10004KT 10SM CLR 07/05 A2996 RMK AO2 T00700047
Loading
Personal Weather Stations






























Interactive Weather Map New forecast layout! Learn more

10-Day Weather Forecast

Advertisements
Track Severe Weather on mobile